sensor_id;sensor_type;location;lat;lon;timestamp;temperature;humidity
19258;DHT22;9763;48.780;9.212;2023-12-28T00:05:45;9.10;71.60
19258;DHT22;9763;48.780;9.212;2023-12-28T00:12:34;9.50;70.90
19258;DHT22;9763;48.780;9.212;2023-12-28T00:19:22;9.60;69.80
19258;DHT22;9763;48.780;9.212;2023-12-28T00:33:01;9.60;69.50
19258;DHT22;9763;48.780;9.212;2023-12-28T00:36:24;9.60;69.50
19258;DHT22;9763;48.780;9.212;2023-12-28T01:10:30;9.60;68.70
19258;DHT22;9763;48.780;9.212;2023-12-28T01:13:55;9.60;68.80
19258;DHT22;9763;48.780;9.212;2023-12-28T01:30:58;9.50;68.10
19258;DHT22;9763;48.780;9.212;2023-12-28T01:58:16;9.20;68.00
19258;DHT22;9763;48.780;9.212;2023-12-28T02:11:56;10.10;68.50
19258;DHT22;9763;48.780;9.212;2023-12-28T02:22:15;8.90;68.00
19258;DHT22;9763;48.780;9.212;2023-12-28T02:32:39;8.80;68.10
19258;DHT22;9763;48.780;9.212;2023-12-28T02:39:38;8.70;68.30
19258;DHT22;9763;48.780;9.212;2023-12-28T02:43:04;8.70;68.20
19258;DHT22;9763;48.780;9.212;2023-12-28T02:46:28;8.70;68.40
19258;DHT22;9763;48.780;9.212;2023-12-28T02:49:52;8.60;68.30
19258;DHT22;9763;48.780;9.212;2023-12-28T02:53:17;8.60;68.30
19258;DHT22;9763;48.780;9.212;2023-12-28T03:00:09;8.60;68.20
19258;DHT22;9763;48.780;9.212;2023-12-28T03:41:04;8.70;68.40
19258;DHT22;9763;48.780;9.212;2023-12-28T03:54:43;8.80;68.50
19258;DHT22;9763;48.780;9.212;2023-12-28T04:04:56;8.90;68.60
19258;DHT22;9763;48.780;9.212;2023-12-28T04:59:33;9.30;70.00
19258;DHT22;9763;48.780;9.212;2023-12-28T05:06:21;9.40;69.90
19258;DHT22;9763;48.780;9.212;2023-12-28T05:09:45;9.40;69.70
19258;DHT22;9763;48.780;9.212;2023-12-28T05:26:48;9.60;69.50
19258;DHT22;9763;48.780;9.212;2023-12-28T05:33:38;9.70;70.00
19258;DHT22;9763;48.780;9.212;2023-12-28T05:37:02;9.70;70.30
19258;DHT22;9763;48.780;9.212;2023-12-28T05:43:50;10.00;70.00
19258;DHT22;9763;48.780;9.212;2023-12-28T05:54:04;10.40;69.70
19258;DHT22;9763;48.780;9.212;2023-12-28T06:00:54;10.60;69.30
19258;DHT22;9763;48.780;9.212;2023-12-28T06:07:44;10.70;69.00
19258;DHT22;9763;48.780;9.212;2023-12-28T06:21:27;10.70;69.70
19258;DHT22;9763;48.780;9.212;2023-12-28T06:24:55;10.70;69.90
19258;DHT22;9763;48.780;9.212;2023-12-28T06:28:19;10.80;69.80
19258;DHT22;9763;48.780;9.212;2023-12-28T06:35:07;11.00;70.20
19258;DHT22;9763;48.780;9.212;2023-12-28T06:41:57;11.10;70.50
19258;DHT22;9763;48.780;9.212;2023-12-28T07:09:17;11.80;70.70
19258;DHT22;9763;48.780;9.212;2023-12-28T07:16:06;11.80;70.80
19258;DHT22;9763;48.780;9.212;2023-12-28T07:33:08;12.00;70.40
19258;DHT22;9763;48.780;9.212;2023-12-28T07:36:32;12.10;70.40
19258;DHT22;9763;48.780;9.212;2023-12-28T07:43:20;12.00;70.50
19258;DHT22;9763;48.780;9.212;2023-12-28T07:50:10;12.10;70.60
19258;DHT22;9763;48.780;9.212;2023-12-28T07:56:57;12.20;70.30
19258;DHT22;9763;48.780;9.212;2023-12-28T08:03:46;12.00;69.10
19258;DHT22;9763;48.780;9.212;2023-12-28T08:17:24;11.60;69.40
19258;DHT22;9763;48.780;9.212;2023-12-28T08:34:30;11.40;69.90
19258;DHT22;9763;48.780;9.212;2023-12-28T08:41:20;11.30;70.30
19258;DHT22;9763;48.780;9.212;2023-12-28T08:55:05;11.50;70.30
19258;DHT22;9763;48.780;9.212;2023-12-28T08:58:30;11.50;70.50
19258;DHT22;9763;48.780;9.212;2023-12-28T09:01:54;11.40;70.60
19258;DHT22;9763;48.780;9.212;2023-12-28T09:05:18;11.50;70.60
19258;DHT22;9763;48.780;9.212;2023-12-28T09:12:07;11.50;70.90
19258;DHT22;9763;48.780;9.212;2023-12-28T09:15:32;11.50;70.90
19258;DHT22;9763;48.780;9.212;2023-12-28T09:18:55;11.50;70.80
19258;DHT22;9763;48.780;9.212;2023-12-28T09:25:43;11.50;70.90
19258;DHT22;9763;48.780;9.212;2023-12-28T09:32:32;11.50;71.00
19258;DHT22;9763;48.780;9.212;2023-12-28T09:35:56;11.50;71.10
19258;DHT22;9763;48.780;9.212;2023-12-28T09:42:51;11.50;71.40
19258;DHT22;9763;48.780;9.212;2023-12-28T09:49:45;11.60;71.90
19258;DHT22;9763;48.780;9.212;2023-12-28T09:56:36;11.70;71.90
19258;DHT22;9763;48.780;9.212;2023-12-28T10:10:22;12.00;72.10
19258;DHT22;9763;48.780;9.212;2023-12-28T10:13:47;12.00;72.00
19258;DHT22;9763;48.780;9.212;2023-12-28T10:24:02;12.20;72.60
19258;DHT22;9763;48.780;9.212;2023-12-28T10:30:54;12.30;72.50
19258;DHT22;9763;48.780;9.212;2023-12-28T10:34:19;12.40;72.50
19258;DHT22;9763;48.780;9.212;2023-12-28T10:37:43;12.50;72.80
19258;DHT22;9763;48.780;9.212;2023-12-28T10:41:09;12.50;72.60
19258;DHT22;9763;48.780;9.212;2023-12-28T10:44:35;12.50;72.30
19258;DHT22;9763;48.780;9.212;2023-12-28T10:48:05;12.60;72.40
19258;DHT22;9763;48.780;9.212;2023-12-28T10:51:32;12.60;72.70
19258;DHT22;9763;48.780;9.212;2023-12-28T10:55:19;12.70;72.70
19258;DHT22;9763;48.780;9.212;2023-12-28T10:58:55;12.70;72.60
19258;DHT22;9763;48.780;9.212;2023-12-28T11:02:28;12.80;72.90
19258;DHT22;9763;48.780;9.212;2023-12-28T11:05:58;12.90;73.10
19258;DHT22;9763;48.780;9.212;2023-12-28T11:09:24;12.90;72.90
19258;DHT22;9763;48.780;9.212;2023-12-28T11:12:51;13.00;72.90
19258;DHT22;9763;48.780;9.212;2023-12-28T11:16:18;13.00;72.90
19258;DHT22;9763;48.780;9.212;2023-12-28T11:19:43;13.10;73.00
19258;DHT22;9763;48.780;9.212;2023-12-28T11:36:49;13.30;72.90
19258;DHT22;9763;48.780;9.212;2023-12-28T11:40:17;13.30;72.90
19258;DHT22;9763;48.780;9.212;2023-12-28T11:47:15;13.70;73.30
19258;DHT22;9763;48.780;9.212;2023-12-28T11:50:41;13.30;72.90
19258;DHT22;9763;48.780;9.212;2023-12-28T11:54:06;13.30;73.00
19258;DHT22;9763;48.780;9.212;2023-12-28T12:00:54;13.40;73.00
19258;DHT22;9763;48.780;9.212;2023-12-28T12:04:18;13.30;73.10
19258;DHT22;9763;48.780;9.212;2023-12-28T12:14:34;13.40;73.20
19258;DHT22;9763;48.780;9.212;2023-12-28T12:21:23;13.40;73.10
19258;DHT22;9763;48.780;9.212;2023-12-28T12:24:49;13.40;73.20
19258;DHT22;9763;48.780;9.212;2023-12-28T12:35:05;13.40;73.30
19258;DHT22;9763;48.780;9.212;2023-12-28T12:38:30;13.40;73.30
19258;DHT22;9763;48.780;9.212;2023-12-28T12:41:55;13.50;73.40
19258;DHT22;9763;48.780;9.212;2023-12-28T12:48:54;13.40;73.20
19258;DHT22;9763;48.780;9.212;2023-12-28T12:52:19;13.50;73.30
19258;DHT22;9763;48.780;9.212;2023-12-28T12:59:12;13.50;73.40
19258;DHT22;9763;48.780;9.212;2023-12-28T13:12:51;13.60;73.40
19258;DHT22;9763;48.780;9.212;2023-12-28T13:16:17;13.70;73.60
19258;DHT22;9763;48.780;9.212;2023-12-28T13:33:19;13.70;73.40
19258;DHT22;9763;48.780;9.212;2023-12-28T13:36:43;13.70;73.30
19258;DHT22;9763;48.780;9.212;2023-12-28T13:40:08;13.70;73.40
19258;DHT22;9763;48.780;9.212;2023-12-28T13:50:23;13.70;73.30
19258;DHT22;9763;48.780;9.212;2023-12-28T13:57:12;13.70;73.40
19258;DHT22;9763;48.780;9.212;2023-12-28T14:00:35;13.60;73.50
19258;DHT22;9763;48.780;9.212;2023-12-28T14:07:26;13.60;73.50
19258;DHT22;9763;48.780;9.212;2023-12-28T14:14:15;13.50;73.60
19258;DHT22;9763;48.780;9.212;2023-12-28T14:21:03;13.50;73.60
19258;DHT22;9763;48.780;9.212;2023-12-28T14:24:31;13.40;73.80
19258;DHT22;9763;48.780;9.212;2023-12-28T14:27:55;13.40;73.60
19258;DHT22;9763;48.780;9.212;2023-12-28T14:34:45;13.40;73.70
19258;DHT22;9763;48.780;9.212;2023-12-28T14:38:09;13.40;73.80
19258;DHT22;9763;48.780;9.212;2023-12-28T14:41:34;13.30;73.70
19258;DHT22;9763;48.780;9.212;2023-12-28T14:45:05;13.30;73.70
19258;DHT22;9763;48.780;9.212;2023-12-28T14:58:46;13.20;73.90
19258;DHT22;9763;48.780;9.212;2023-12-28T15:02:10;13.20;74.00
19258;DHT22;9763;48.780;9.212;2023-12-28T15:05:34;13.20;74.10
19258;DHT22;9763;48.780;9.212;2023-12-28T15:08:58;13.20;74.20
19258;DHT22;9763;48.780;9.212;2023-12-28T15:12:22;13.20;74.20
19258;DHT22;9763;48.780;9.212;2023-12-28T15:15:47;13.20;74.30
19258;DHT22;9763;48.780;9.212;2023-12-28T15:19:14;13.20;74.20
19258;DHT22;9763;48.780;9.212;2023-12-28T15:29:28;13.20;74.30
19258;DHT22;9763;48.780;9.212;2023-12-28T15:32:53;13.20;74.40
19258;DHT22;9763;48.780;9.212;2023-12-28T15:39:41;13.20;74.30
19258;DHT22;9763;48.780;9.212;2023-12-28T15:49:54;13.20;74.30
19258;DHT22;9763;48.780;9.212;2023-12-28T16:00:07;13.20;74.30
19258;DHT22;9763;48.780;9.212;2023-12-28T16:10:25;13.10;74.20
19258;DHT22;9763;48.780;9.212;2023-12-28T16:17:15;13.10;74.00
19258;DHT22;9763;48.780;9.212;2023-12-28T16:20:40;13.00;73.80
19258;DHT22;9763;48.780;9.212;2023-12-28T16:24:06;13.00;73.50
19258;DHT22;9763;48.780;9.212;2023-12-28T16:37:44;12.90;73.80
19258;DHT22;9763;48.780;9.212;2023-12-28T16:47:57;12.80;73.70
19258;DHT22;9763;48.780;9.212;2023-12-28T16:54:45;12.80;74.00
19258;DHT22;9763;48.780;9.212;2023-12-28T16:58:10;12.80;74.00
19258;DHT22;9763;48.780;9.212;2023-12-28T17:01:34;12.80;74.20
19258;DHT22;9763;48.780;9.212;2023-12-28T17:11:50;12.80;74.30
19258;DHT22;9763;48.780;9.212;2023-12-28T17:15:21;12.80;74.20
19258;DHT22;9763;48.780;9.212;2023-12-28T17:22:11;12.80;74.30
19258;DHT22;9763;48.780;9.212;2023-12-28T17:25:41;12.80;74.30
19258;DHT22;9763;48.780;9.212;2023-12-28T17:29:13;12.80;74.40
19258;DHT22;9763;48.780;9.212;2023-12-28T17:32:39;12.80;74.30
19258;DHT22;9763;48.780;9.212;2023-12-28T17:36:05;12.80;74.30
19258;DHT22;9763;48.780;9.212;2023-12-28T17:46:33;12.80;74.20
19258;DHT22;9763;48.780;9.212;2023-12-28T17:50:11;12.80;74.30
19258;DHT22;9763;48.780;9.212;2023-12-28T17:53:39;12.80;74.30
19258;DHT22;9763;48.780;9.212;2023-12-28T18:07:16;12.70;74.40
19258;DHT22;9763;48.780;9.212;2023-12-28T18:24:18;12.70;74.60
19258;DHT22;9763;48.780;9.212;2023-12-28T18:41:20;12.70;74.60
19258;DHT22;9763;48.780;9.212;2023-12-28T18:48:08;12.60;74.50
19258;DHT22;9763;48.780;9.212;2023-12-28T18:54:59;12.60;74.50
19258;DHT22;9763;48.780;9.212;2023-12-28T18:58:25;12.60;74.50
19258;DHT22;9763;48.780;9.212;2023-12-28T19:05:15;12.60;74.50
19258;DHT22;9763;48.780;9.212;2023-12-28T19:08:43;12.60;74.70
19258;DHT22;9763;48.780;9.212;2023-12-28T19:12:07;12.50;74.70
19258;DHT22;9763;48.780;9.212;2023-12-28T19:15:34;12.50;74.90
19258;DHT22;9763;48.780;9.212;2023-12-28T19:29:12;12.50;75.10
19258;DHT22;9763;48.780;9.212;2023-12-28T19:32:40;12.50;75.20
19258;DHT22;9763;48.780;9.212;2023-12-28T19:36:04;12.50;75.10
19258;DHT22;9763;48.780;9.212;2023-12-28T19:39:29;12.50;75.10
19258;DHT22;9763;48.780;9.212;2023-12-28T19:49:42;12.50;75.20
19258;DHT22;9763;48.780;9.212;2023-12-28T20:06:51;12.50;75.30
19258;DHT22;9763;48.780;9.212;2023-12-28T20:10:15;12.50;75.50
19258;DHT22;9763;48.780;9.212;2023-12-28T20:23:54;12.50;75.50
19258;DHT22;9763;48.780;9.212;2023-12-28T21:01:26;12.50;75.50
19258;DHT22;9763;48.780;9.212;2023-12-28T21:15:05;12.50;75.90
19258;DHT22;9763;48.780;9.212;2023-12-28T21:25:23;12.50;75.80
19258;DHT22;9763;48.780;9.212;2023-12-28T21:32:14;12.60;75.80
19258;DHT22;9763;48.780;9.212;2023-12-28T21:35:39;12.50;75.80
19258;DHT22;9763;48.780;9.212;2023-12-28T21:49:18;12.50;75.80
19258;DHT22;9763;48.780;9.212;2023-12-28T21:56:07;12.50;75.80
19258;DHT22;9763;48.780;9.212;2023-12-28T21:59:32;12.50;75.90
19258;DHT22;9763;48.780;9.212;2023-12-28T22:06:20;12.50;75.90
19258;DHT22;9763;48.780;9.212;2023-12-28T22:13:09;12.50;75.60
19258;DHT22;9763;48.780;9.212;2023-12-28T22:19:57;12.40;75.40
19258;DHT22;9763;48.780;9.212;2023-12-28T22:23:22;12.40;75.20
19258;DHT22;9763;48.780;9.212;2023-12-28T22:30:11;12.30;75.40
19258;DHT22;9763;48.780;9.212;2023-12-28T22:40:26;12.30;75.60
19258;DHT22;9763;48.780;9.212;2023-12-28T22:47:14;12.30;75.30
19258;DHT22;9763;48.780;9.212;2023-12-28T22:54:03;12.30;75.60
19258;DHT22;9763;48.780;9.212;2023-12-28T23:00:52;12.30;75.80
19258;DHT22;9763;48.780;9.212;2023-12-28T23:07:40;12.30;75.90
19258;DHT22;9763;48.780;9.212;2023-12-28T23:11:04;12.30;76.00
19258;DHT22;9763;48.780;9.212;2023-12-28T23:31:31;12.40;75.60
19258;DHT22;9763;48.780;9.212;2023-12-28T23:41:45;12.30;75.20
19258;DHT22;9763;48.780;9.212;2023-12-28T23:45:09;12.30;75.30
19258;DHT22;9763;48.780;9.212;2023-12-28T23:48:34;12.30;75.30
19258;DHT22;9763;48.780;9.212;2023-12-28T23:51:58;12.30;75.40
